sensor_id;sensor_type;location;lat;lon;timestamp;pressure;altitude;pressure_sealevel;temperature;humidity
71764;BME280;59602;52.142;5.408;2023-04-26T00:02:15;102070.53;;;5.89;78.12
71764;BME280;59602;52.142;5.408;2023-04-26T00:04:43;102068.78;;;5.84;78.61
71764;BME280;59602;52.142;5.408;2023-04-26T00:07:11;102069.59;;;5.85;78.87
71764;BME280;59602;52.142;5.408;2023-04-26T00:09:39;102078.81;;;5.83;79.03
71764;BME280;59602;52.142;5.408;2023-04-26T00:12:07;102078.97;;;5.78;78.94
71764;BME280;59602;52.142;5.408;2023-04-26T00:14:34;102081.19;;;5.76;78.68
71764;BME280;59602;52.142;5.408;2023-04-26T00:17:01;102080.84;;;5.69;79.22
71764;BME280;59602;52.142;5.408;2023-04-26T00:19:30;102079.09;;;5.65;78.72
71764;BME280;59602;52.142;5.408;2023-04-26T00:21:57;102080.03;;;5.60;78.79
71764;BME280;59602;52.142;5.408;2023-04-26T00:24:24;102078.28;;;5.55;79.07
71764;BME280;59602;52.142;5.408;2023-04-26T00:26:53;102070.16;;;5.47;78.54
71764;BME280;59602;52.142;5.408;2023-04-26T00:29:21;102073.78;;;5.42;78.49
71764;BME280;59602;52.142;5.408;2023-04-26T00:31:48;102068.41;;;5.42;79.62
71764;BME280;59602;52.142;5.408;2023-04-26T00:34:16;102067.63;;;5.41;79.92
71764;BME280;59602;52.142;5.408;2023-04-26T00:36:45;102067.44;;;5.38;79.92
71764;BME280;59602;52.142;5.408;2023-04-26T00:39:11;102064.59;;;5.34;79.19
71764;BME280;59602;52.142;5.408;2023-04-26T00:41:38;102064.75;;;5.29;79.86
71764;BME280;59602;52.142;5.408;2023-04-26T00:44:06;102063.78;;;5.25;79.64
71764;BME280;59602;52.142;5.408;2023-04-26T00:46:32;102060.09;;;5.21;79.45
71764;BME280;59602;52.142;5.408;2023-04-26T00:48:59;102057.72;;;5.19;80.04
71764;BME280;59602;52.142;5.408;2023-04-26T00:51:26;102054.53;;;5.17;79.83
71764;BME280;59602;52.142;5.408;2023-04-26T00:53:53;102053.72;;;5.08;80.07
71764;BME280;59602;52.142;5.408;2023-04-26T00:56:21;102051.66;;;5.05;80.57
71764;BME280;59602;52.142;5.408;2023-04-26T00:58:50;102052.25;;;5.02;80.40
71764;BME280;59602;52.142;5.408;2023-04-26T01:01:19;102060.97;;;4.99;80.69
71764;BME280;59602;52.142;5.408;2023-04-26T01:03:47;102054.31;;;4.96;80.33
71764;BME280;59602;52.142;5.408;2023-04-26T01:06:14;102053.16;;;4.89;80.10
71764;BME280;59602;52.142;5.408;2023-04-26T01:08:41;102060.44;;;4.88;80.78
71764;BME280;59602;52.142;5.408;2023-04-26T01:11:09;102058.53;;;4.89;80.98
71764;BME280;59602;52.142;5.408;2023-04-26T01:13:36;102057.25;;;4.86;80.83
71764;BME280;59602;52.142;5.408;2023-04-26T01:16:04;102069.75;;;4.82;80.83
71764;BME280;59602;52.142;5.408;2023-04-26T01:18:33;102070.69;;;4.77;80.46
71764;BME280;59602;52.142;5.408;2023-04-26T01:21:00;102066.22;;;4.73;80.77
71764;BME280;59602;52.142;5.408;2023-04-26T01:23:30;102077.34;;;4.71;80.66
71764;BME280;59602;52.142;5.408;2023-04-26T01:25:57;102073.31;;;4.69;80.50
71764;BME280;59602;52.142;5.408;2023-04-26T01:28:24;102067.59;;;4.62;80.72
71764;BME280;59602;52.142;5.408;2023-04-26T01:30:52;102077.88;;;4.60;80.82
71764;BME280;59602;52.142;5.408;2023-04-26T01:33:18;102074.53;;;4.54;80.38
71764;BME280;59602;52.142;5.408;2023-04-26T01:35:45;102074.81;;;4.52;80.69
71764;BME280;59602;52.142;5.408;2023-04-26T01:38:12;102070.84;;;4.50;80.62
71764;BME280;59602;52.142;5.408;2023-04-26T01:40:40;102072.44;;;4.51;81.07
71764;BME280;59602;52.142;5.408;2023-04-26T01:43:09;102077.34;;;4.49;81.11
71764;BME280;59602;52.142;5.408;2023-04-26T01:45:36;102073.84;;;4.48;81.17
71764;BME280;59602;52.142;5.408;2023-04-26T01:48:03;102073.50;;;4.41;80.79
71764;BME280;59602;52.142;5.408;2023-04-26T01:50:33;102070.59;;;4.37;81.00
71764;BME280;59602;52.142;5.408;2023-04-26T01:52:59;102068.22;;;4.36;80.97
71764;BME280;59602;52.142;5.408;2023-04-26T01:55:26;102063.44;;;4.33;80.32
71764;BME280;59602;52.142;5.408;2023-04-26T01:57:53;102057.19;;;4.24;80.29
71764;BME280;59602;52.142;5.408;2023-04-26T02:00:19;102060.72;;;4.24;80.53
71764;BME280;59602;52.142;5.408;2023-04-26T02:02:46;102067.19;;;4.23;81.08
71764;BME280;59602;52.142;5.408;2023-04-26T02:05:13;102054.84;;;4.22;80.36
71764;BME280;59602;52.142;5.408;2023-04-26T02:07:40;102060.31;;;4.17;80.66
71764;BME280;59602;52.142;5.408;2023-04-26T02:10:09;102067.13;;;4.14;80.75
71764;BME280;59602;52.142;5.408;2023-04-26T02:12:36;102064.25;;;4.11;81.08
71764;BME280;59602;52.142;5.408;2023-04-26T02:15:04;102064.44;;;4.14;81.04
71764;BME280;59602;52.142;5.408;2023-04-26T02:17:31;102069.31;;;4.12;80.77
71764;BME280;59602;52.142;5.408;2023-04-26T02:19:59;102073.91;;;4.12;81.22
71764;BME280;59602;52.142;5.408;2023-04-26T02:22:26;102062.44;;;4.06;80.91
71764;BME280;59602;52.142;5.408;2023-04-26T02:24:53;102057.97;;;4.02;81.06
71764;BME280;59602;52.142;5.408;2023-04-26T02:27:19;102063.84;;;4.04;81.26
71764;BME280;59602;52.142;5.408;2023-04-26T02:29:46;102064.97;;;4.03;81.65
71764;BME280;59602;52.142;5.408;2023-04-26T02:32:12;102063.06;;;4.03;81.44
71764;BME280;59602;52.142;5.408;2023-04-26T02:34:40;102061.78;;;4.01;81.28
71764;BME280;59602;52.142;5.408;2023-04-26T02:37:07;102060.22;;;4.00;81.64
71764;BME280;59602;52.142;5.408;2023-04-26T02:39:34;102071.75;;;4.00;81.95
71764;BME280;59602;52.142;5.408;2023-04-26T02:42:01;102066.06;;;4.02;82.01
71764;BME280;59602;52.142;5.408;2023-04-26T02:44:29;102065.59;;;4.00;81.85
71764;BME280;59602;52.142;5.408;2023-04-26T02:46:57;102063.69;;;4.00;81.74
71764;BME280;59602;52.142;5.408;2023-04-26T02:49:28;102065.09;;;3.98;81.58
71764;BME280;59602;52.142;5.408;2023-04-26T02:51:55;102066.78;;;3.93;81.90
71764;BME280;59602;52.142;5.408;2023-04-26T02:54:22;102058.72;;;3.93;82.20
71764;BME280;59602;52.142;5.408;2023-04-26T02:56:49;102066.31;;;3.91;82.18
71764;BME280;59602;52.142;5.408;2023-04-26T02:59:15;102059.44;;;3.85;82.24
71764;BME280;59602;52.142;5.408;2023-04-26T03:01:42;102057.94;;;3.79;81.51
71764;BME280;59602;52.142;5.408;2023-04-26T03:04:09;102058.84;;;3.74;81.34
71764;BME280;59602;52.142;5.408;2023-04-26T03:06:35;102057.06;;;3.70;81.64
71764;BME280;59602;52.142;5.408;2023-04-26T03:09:03;102057.56;;;3.72;81.99
71764;BME280;59602;52.142;5.408;2023-04-26T03:11:31;102053.81;;;3.73;81.87
71764;BME280;59602;52.142;5.408;2023-04-26T03:13:57;102055.38;;;3.74;81.56
71764;BME280;59602;52.142;5.408;2023-04-26T03:16:26;102048.72;;;3.71;81.66
71764;BME280;59602;52.142;5.408;2023-04-26T03:18:53;102047.44;;;3.69;81.74
71764;BME280;59602;52.142;5.408;2023-04-26T03:21:20;102051.19;;;3.68;81.47
71764;BME280;59602;52.142;5.408;2023-04-26T03:23:47;102046.72;;;3.63;81.84
71764;BME280;59602;52.142;5.408;2023-04-26T03:26:17;102054.00;;;3.63;81.65
71764;BME280;59602;52.142;5.408;2023-04-26T03:28:43;102047.84;;;3.62;82.21
71764;BME280;59602;52.142;5.408;2023-04-26T03:31:10;102046.06;;;3.58;82.78
71764;BME280;59602;52.142;5.408;2023-04-26T03:33:37;102044.44;;;3.57;82.77
71764;BME280;59602;52.142;5.408;2023-04-26T03:36:03;102048.75;;;3.58;82.61
71764;BME280;59602;52.142;5.408;2023-04-26T03:38:30;102043.88;;;3.60;83.22
71764;BME280;59602;52.142;5.408;2023-04-26T03:40:57;102043.88;;;3.60;83.24
71764;BME280;59602;52.142;5.408;2023-04-26T03:43:23;102042.25;;;3.59;82.11
71764;BME280;59602;52.142;5.408;2023-04-26T03:45:51;102048.25;;;3.56;82.53
71764;BME280;59602;52.142;5.408;2023-04-26T03:48:18;102040.75;;;3.52;82.22
71764;BME280;59602;52.142;5.408;2023-04-26T03:50:44;102045.66;;;3.50;82.53
71764;BME280;59602;52.142;5.408;2023-04-26T03:53:11;102045.66;;;3.50;82.34
71764;BME280;59602;52.142;5.408;2023-04-26T03:55:38;102051.84;;;3.51;82.64
71764;BME280;59602;52.142;5.408;2023-04-26T03:58:04;102051.84;;;3.51;82.69
71764;BME280;59602;52.142;5.408;2023-04-26T04:00:36;102044.56;;;3.51;82.54
71764;BME280;59602;52.142;5.408;2023-04-26T04:03:03;102048.84;;;3.52;82.15
71764;BME280;59602;52.142;5.408;2023-04-26T04:05:30;102054.31;;;3.47;82.28
71764;BME280;59602;52.142;5.408;2023-04-26T04:07:57;102049.34;;;3.41;82.02
71764;BME280;59602;52.142;5.408;2023-04-26T04:10:24;102045.88;;;3.40;81.88
71764;BME280;59602;52.142;5.408;2023-04-26T04:12:51;102049.34;;;3.41;82.44
71764;BME280;59602;52.142;5.408;2023-04-26T04:15:19;102046.97;;;3.39;82.26
71764;BME280;59602;52.142;5.408;2023-04-26T04:17:46;102039.50;;;3.36;81.79
71764;BME280;59602;52.142;5.408;2023-04-26T04:20:13;102043.59;;;3.33;81.90
71764;BME280;59602;52.142;5.408;2023-04-26T04:22:40;102039.50;;;3.36;82.40
71764;BME280;59602;52.142;5.408;2023-04-26T04:25:07;102042.41;;;3.40;82.55
71764;BME280;59602;52.142;5.408;2023-04-26T04:27:36;102042.56;;;3.43;82.89
71764;BME280;59602;52.142;5.408;2023-04-26T04:30:04;102040.69;;;3.44;82.87
71764;BME280;59602;52.142;5.408;2023-04-26T04:32:32;102038.00;;;3.44;82.84
71764;BME280;59602;52.142;5.408;2023-04-26T04:34:59;102033.44;;;3.44;83.08
71764;BME280;59602;52.142;5.408;2023-04-26T04:37:26;102044.97;;;3.45;83.09
71764;BME280;59602;52.142;5.408;2023-04-26T04:39:54;102043.88;;;3.46;82.90
71764;BME280;59602;52.142;5.408;2023-04-26T04:42:21;102045.66;;;3.50;83.16
71764;BME280;59602;52.142;5.408;2023-04-26T04:44:48;102033.81;;;3.51;83.34
71764;BME280;59602;52.142;5.408;2023-04-26T04:47:15;102043.47;;;3.52;83.24
71764;BME280;59602;52.142;5.408;2023-04-26T04:49:43;102041.88;;;3.51;83.20
71764;BME280;59602;52.142;5.408;2023-04-26T04:52:10;102044.84;;;3.50;83.41
71764;BME280;59602;52.142;5.408;2023-04-26T04:54:37;102051.84;;;3.51;83.31
71764;BME280;59602;52.142;5.408;2023-04-26T04:57:04;102047.25;;;3.51;83.51
71764;BME280;59602;52.142;5.408;2023-04-26T04:59:31;102052.53;;;3.57;83.34
71764;BME280;59602;52.142;5.408;2023-04-26T05:01:58;102047.63;;;3.59;83.45
71764;BME280;59602;52.142;5.408;2023-04-26T05:04:25;102052.44;;;3.62;83.43
71764;BME280;59602;52.142;5.408;2023-04-26T05:06:52;102054.78;;;3.63;83.05
71764;BME280;59602;52.142;5.408;2023-04-26T05:09:19;102054.00;;;3.63;83.05
71764;BME280;59602;52.142;5.408;2023-04-26T05:11:45;102061.28;;;3.62;83.23
71764;BME280;59602;52.142;5.408;2023-04-26T05:14:12;102066.34;;;3.64;83.11
71764;BME280;59602;52.142;5.408;2023-04-26T05:16:39;102065.75;;;3.67;83.16
71764;BME280;59602;52.142;5.408;2023-04-26T05:19:06;102074.09;;;3.79;83.26
71764;BME280;59602;52.142;5.408;2023-04-26T05:21:35;102073.38;;;3.87;83.41
71764;BME280;59602;52.142;5.408;2023-04-26T05:24:01;102075.16;;;3.92;83.39
71764;BME280;59602;52.142;5.408;2023-04-26T05:26:28;102074.25;;;3.97;83.68
71764;BME280;59602;52.142;5.408;2023-04-26T05:28:55;102076.53;;;4.03;83.92
71764;BME280;59602;52.142;5.408;2023-04-26T05:31:22;102070.22;;;4.08;84.25
71764;BME280;59602;52.142;5.408;2023-04-26T05:33:48;102075.19;;;4.14;83.91
71764;BME280;59602;52.142;5.408;2023-04-26T05:36:15;102076.66;;;4.21;84.02
71764;BME280;59602;52.142;5.408;2023-04-26T05:38:42;102074.34;;;4.28;84.09
71764;BME280;59602;52.142;5.408;2023-04-26T05:41:08;102073.28;;;4.37;84.68
71764;BME280;59602;52.142;5.408;2023-04-26T05:43:36;102080.66;;;4.46;84.20
71764;BME280;59602;52.142;5.408;2023-04-26T05:46:03;102081.31;;;4.51;84.48
71764;BME280;59602;52.142;5.408;2023-04-26T05:48:30;102079.91;;;4.54;83.83
71764;BME280;59602;52.142;5.408;2023-04-26T05:50:56;102076.28;;;4.58;84.69
71764;BME280;59602;52.142;5.408;2023-04-26T05:53:23;102079.34;;;4.66;84.47
71764;BME280;59602;52.142;5.408;2023-04-26T05:55:50;102070.19;;;4.75;84.10
71764;BME280;59602;52.142;5.408;2023-04-26T05:58:16;102073.13;;;4.88;84.19
71764;BME280;59602;52.142;5.408;2023-04-26T06:00:43;102077.81;;;5.05;84.13
71764;BME280;59602;52.142;5.408;2023-04-26T06:03:09;102075.50;;;5.20;84.20
71764;BME280;59602;52.142;5.408;2023-04-26T06:05:36;102076.00;;;5.40;84.43
71764;BME280;59602;52.142;5.408;2023-04-26T06:08:04;102078.28;;;5.64;84.10
71764;BME280;59602;52.142;5.408;2023-04-26T06:10:31;102085.97;;;5.88;83.63
71764;BME280;59602;52.142;5.408;2023-04-26T06:12:58;102083.44;;;6.09;82.56
71764;BME280;59602;52.142;5.408;2023-04-26T06:15:27;102081.53;;;6.27;80.72
71764;BME280;59602;52.142;5.408;2023-04-26T06:17:57;102079.31;;;6.38;79.40
71764;BME280;59602;52.142;5.408;2023-04-26T06:20:24;102084.22;;;6.44;79.59
71764;BME280;59602;52.142;5.408;2023-04-26T06:22:51;102078.50;;;6.46;78.62
71764;BME280;59602;52.142;5.408;2023-04-26T06:25:18;102085.81;;;6.46;77.74
71764;BME280;59602;52.142;5.408;2023-04-26T06:27:45;102083.59;;;6.48;76.82
71764;BME280;59602;52.142;5.408;2023-04-26T06:30:12;102086.59;;;6.55;76.42
71764;BME280;59602;52.142;5.408;2023-04-26T06:32:40;102100.09;;;6.63;76.98
71764;BME280;59602;52.142;5.408;2023-04-26T06:35:07;102093.53;;;6.73;77.13
71764;BME280;59602;52.142;5.408;2023-04-26T06:37:37;102097.03;;;6.82;77.10
71764;BME280;59602;52.142;5.408;2023-04-26T06:40:06;102102.88;;;6.93;75.97
71764;BME280;59602;52.142;5.408;2023-04-26T06:42:33;102109.03;;;7.02;76.11
71764;BME280;59602;52.142;5.408;2023-04-26T06:45:00;102109.97;;;7.15;74.84
71764;BME280;59602;52.142;5.408;2023-04-26T06:47:29;102109.94;;;7.24;74.36
71764;BME280;59602;52.142;5.408;2023-04-26T06:49:56;102118.34;;;7.22;73.99
71764;BME280;59602;52.142;5.408;2023-04-26T06:52:23;102114.56;;;7.23;73.14
71764;BME280;59602;52.142;5.408;2023-04-26T06:54:49;102123.94;;;7.26;72.72
71764;BME280;59602;52.142;5.408;2023-04-26T06:57:22;102129.16;;;7.31;72.37
71764;BME280;59602;52.142;5.408;2023-04-26T07:00:08;102113.94;;;7.47;73.00
71764;BME280;59602;52.142;5.408;2023-04-26T07:02:35;102116.25;;;7.66;71.63
71764;BME280;59602;52.142;5.408;2023-04-26T07:05:02;102121.47;;;7.72;70.78
71764;BME280;59602;52.142;5.408;2023-04-26T07:07:29;102111.25;;;7.77;69.91
71764;BME280;59602;52.142;5.408;2023-04-26T07:09:59;102115.31;;;7.83;70.19
71764;BME280;59602;52.142;5.408;2023-04-26T07:12:26;102119.44;;;7.89;68.83
71764;BME280;59602;52.142;5.408;2023-04-26T07:14:52;102113.38;;;7.93;68.74
71764;BME280;59602;52.142;5.408;2023-04-26T07:17:19;102106.81;;;7.94;68.44
71764;BME280;59602;52.142;5.408;2023-04-26T07:19:46;102110.47;;;7.98;68.92
71764;BME280;59602;52.142;5.408;2023-04-26T07:22:13;102115.88;;;7.98;68.41
71764;BME280;59602;52.142;5.408;2023-04-26T07:24:40;102107.69;;;8.06;68.46
71764;BME280;59602;52.142;5.408;2023-04-26T07:27:07;102100.94;;;8.13;67.93
71764;BME280;59602;52.142;5.408;2023-04-26T07:29:33;102095.66;;;8.16;67.33
71764;BME280;59602;52.142;5.408;2023-04-26T07:32:03;102099.97;;;8.17;67.23
71764;BME280;59602;52.142;5.408;2023-04-26T07:34:30;102106.09;;;8.26;66.51
71764;BME280;59602;52.142;5.408;2023-04-26T07:36:57;102108.91;;;8.30;66.61
71764;BME280;59602;52.142;5.408;2023-04-26T07:39:23;102104.75;;;8.32;64.96
71764;BME280;59602;52.142;5.408;2023-04-26T07:41:50;102110.44;;;8.40;65.58
71764;BME280;59602;52.142;5.408;2023-04-26T07:44:17;102108.78;;;8.47;65.27
71764;BME280;59602;52.142;5.408;2023-04-26T07:46:43;102121.34;;;8.52;65.26
71764;BME280;59602;52.142;5.408;2023-04-26T07:49:10;102118.63;;;8.52;65.26
71764;BME280;59602;52.142;5.408;2023-04-26T07:51:37;102114.81;;;8.53;65.04
71764;BME280;59602;52.142;5.408;2023-04-26T07:54:03;102115.72;;;8.57;65.08
71764;BME280;59602;52.142;5.408;2023-04-26T07:56:30;102124.13;;;8.64;65.20
71764;BME280;59602;52.142;5.408;2023-04-26T07:58:57;102124.13;;;8.64;63.94
71764;BME280;59602;52.142;5.408;2023-04-26T08:01:24;102117.00;;;8.72;63.59
71764;BME280;59602;52.142;5.408;2023-04-26T08:03:51;102123.50;;;8.92;62.50
71764;BME280;59602;52.142;5.408;2023-04-26T08:06:21;102134.38;;;9.04;61.53
71764;BME280;59602;52.142;5.408;2023-04-26T08:08:49;102126.34;;;9.08;60.31
71764;BME280;59602;52.142;5.408;2023-04-26T08:11:16;102128.06;;;9.12;60.39
71764;BME280;59602;52.142;5.408;2023-04-26T08:13:43;102127.13;;;9.08;59.93
71764;BME280;59602;52.142;5.408;2023-04-26T08:16:14;102115.94;;;9.10;60.60
71764;BME280;59602;52.142;5.408;2023-04-26T08:18:40;102121.28;;;9.19;59.42
71764;BME280;59602;52.142;5.408;2023-04-26T08:21:11;102121.50;;;9.26;58.93
71764;BME280;59602;52.142;5.408;2023-04-26T08:23:38;102122.28;;;9.26;58.00
71764;BME280;59602;52.142;5.408;2023-04-26T08:26:07;102129.19;;;9.24;58.53
71764;BME280;59602;52.142;5.408;2023-04-26T08:28:34;102128.72;;;9.22;57.12
71764;BME280;59602;52.142;5.408;2023-04-26T08:31:01;102124.00;;;9.19;57.63
71764;BME280;59602;52.142;5.408;2023-04-26T08:33:30;102125.56;;;9.20;57.54
71764;BME280;59602;52.142;5.408;2023-04-26T08:36:35;102114.72;;;9.07;57.36
71764;BME280;59602;52.142;5.408;2023-04-26T08:39:02;102122.16;;;8.98;58.22
71764;BME280;59602;52.142;5.408;2023-04-26T08:41:34;102124.50;;;8.87;58.35
71764;BME280;59602;52.142;5.408;2023-04-26T08:44:03;102122.22;;;8.77;58.34
71764;BME280;59602;52.142;5.408;2023-04-26T08:46:36;102124.03;;;8.73;59.44
71764;BME280;59602;52.142;5.408;2023-04-26T08:49:21;102127.41;;;8.70;59.90
71764;BME280;59602;52.142;5.408;2023-04-26T08:52:01;102133.81;;;8.65;60.11
71764;BME280;59602;52.142;5.408;2023-04-26T08:54:31;102126.13;;;8.55;60.86
71764;BME280;59602;52.142;5.408;2023-04-26T08:56:58;102128.38;;;8.53;62.40
71764;BME280;59602;52.142;5.408;2023-04-26T08:59:29;102133.66;;;8.49;62.77
71764;BME280;59602;52.142;5.408;2023-04-26T09:01:56;102122.09;;;8.40;63.83
71764;BME280;59602;52.142;5.408;2023-04-26T09:04:24;102130.06;;;8.37;63.38
71764;BME280;59602;52.142;5.408;2023-04-26T09:06:52;102135.03;;;8.35;63.30
71764;BME280;59602;52.142;5.408;2023-04-26T09:09:21;102122.72;;;8.37;63.44
71764;BME280;59602;52.142;5.408;2023-04-26T09:12:18;102128.44;;;8.44;63.36
71764;BME280;59602;52.142;5.408;2023-04-26T09:14:47;102128.09;;;8.46;62.87
71764;BME280;59602;52.142;5.408;2023-04-26T09:17:24;102126.56;;;8.57;62.89
71764;BME280;59602;52.142;5.408;2023-04-26T09:19:52;102123.75;;;8.66;62.30
71764;BME280;59602;52.142;5.408;2023-04-26T09:22:34;102123.13;;;8.69;61.59
71764;BME280;59602;52.142;5.408;2023-04-26T09:25:02;102121.56;;;8.80;62.09
71764;BME280;59602;52.142;5.408;2023-04-26T09:27:35;102126.66;;;8.94;61.37
71764;BME280;59602;52.142;5.408;2023-04-26T09:30:06;102128.84;;;9.01;61.05
71764;BME280;59602;52.142;5.408;2023-04-26T09:32:53;102125.25;;;9.09;61.26
71764;BME280;59602;52.142;5.408;2023-04-26T09:35:24;102120.03;;;9.16;60.39
71764;BME280;59602;52.142;5.408;2023-04-26T09:40:40;102126.38;;;9.20;59.92
71764;BME280;59602;52.142;5.408;2023-04-26T09:43:10;102129.09;;;9.20;58.66
71764;BME280;59602;52.142;5.408;2023-04-26T09:48:21;102133.03;;;9.35;58.48
71764;BME280;59602;52.142;5.408;2023-04-26T09:50:50;102128.19;;;9.41;57.12
71764;BME280;59602;52.142;5.408;2023-04-26T09:53:33;102139.72;;;9.50;57.71
71764;BME280;59602;52.142;5.408;2023-04-26T09:56:11;102136.22;;;9.62;57.44
71764;BME280;59602;52.142;5.408;2023-04-26T09:58:55;102125.81;;;9.76;57.40
71764;BME280;59602;52.142;5.408;2023-04-26T10:01:25;102121.28;;;9.80;54.66
71764;BME280;59602;52.142;5.408;2023-04-26T10:03:56;102122.84;;;9.81;53.82
71764;BME280;59602;52.142;5.408;2023-04-26T10:06:26;102119.09;;;9.86;53.73
71764;BME280;59602;52.142;5.408;2023-04-26T10:08:54;102124.06;;;9.96;55.00
71764;BME280;59602;52.142;5.408;2023-04-26T10:11:22;102122.91;;;9.97;54.07
71764;BME280;59602;52.142;5.408;2023-04-26T10:13:53;102118.28;;;9.97;54.02
71764;BME280;59602;52.142;5.408;2023-04-26T10:16:20;102115.22;;;9.99;53.05
71764;BME280;59602;52.142;5.408;2023-04-26T10:18:49;102118.72;;;10.00;53.02
71764;BME280;59602;52.142;5.408;2023-04-26T10:21:21;102111.59;;;9.95;51.57
71764;BME280;59602;52.142;5.408;2023-04-26T10:23:49;102116.59;;;9.93;52.14
71764;BME280;59602;52.142;5.408;2023-04-26T10:29:13;102116.13;;;9.91;52.56
71764;BME280;59602;52.142;5.408;2023-04-26T10:32:04;102128.47;;;9.88;52.66
71764;BME280;59602;52.142;5.408;2023-04-26T10:34:33;102126.91;;;9.87;52.87
71764;BME280;59602;52.142;5.408;2023-04-26T10:37:11;102115.25;;;9.87;53.20
71764;BME280;59602;52.142;5.408;2023-04-26T10:39:41;102121.28;;;9.80;51.76
71764;BME280;59602;52.142;5.408;2023-04-26T10:42:23;102117.41;;;9.81;53.46
71764;BME280;59602;52.142;5.408;2023-04-26T10:44:54;102119.44;;;9.84;52.86
71764;BME280;59602;52.142;5.408;2023-04-26T10:47:31;102111.19;;;9.81;52.58
71764;BME280;59602;52.142;5.408;2023-04-26T10:50:07;102115.25;;;9.87;53.98
71764;BME280;59602;52.142;5.408;2023-04-26T10:52:37;102116.59;;;9.93;53.05
71764;BME280;59602;52.142;5.408;2023-04-26T10:55:05;102118.19;;;9.94;52.29
71764;BME280;59602;52.142;5.408;2023-04-26T10:57:50;102118.84;;;10.03;54.13
71764;BME280;59602;52.142;5.408;2023-04-26T11:00:19;102115.53;;;10.10;52.98
71764;BME280;59602;52.142;5.408;2023-04-26T11:03:02;102105.91;;;10.12;53.30
71764;BME280;59602;52.142;5.408;2023-04-26T11:05:50;102112.91;;;10.13;53.49
71764;BME280;59602;52.142;5.408;2023-04-26T11:08:23;102117.34;;;10.18;52.98
71764;BME280;59602;52.142;5.408;2023-04-26T11:10:57;102116.63;;;10.21;52.32
71764;BME280;59602;52.142;5.408;2023-04-26T11:13:24;102116.72;;;10.25;53.48
71764;BME280;59602;52.142;5.408;2023-04-26T11:15:52;102110.03;;;10.34;52.19
71764;BME280;59602;52.142;5.408;2023-04-26T11:18:20;102101.38;;;10.45;52.44
71764;BME280;59602;52.142;5.408;2023-04-26T11:20:47;102100.03;;;10.67;51.95
71764;BME280;59602;52.142;5.408;2023-04-26T11:23:17;102098.34;;;10.62;49.86
71764;BME280;59602;52.142;5.408;2023-04-26T11:25:43;102101.16;;;10.66;50.23
71764;BME280;59602;52.142;5.408;2023-04-26T11:28:11;102099.78;;;10.72;49.81
71764;BME280;59602;52.142;5.408;2023-04-26T11:30:38;102093.53;;;10.71;47.63
71764;BME280;59602;52.142;5.408;2023-04-26T11:33:04;102088.19;;;10.91;49.23
71764;BME280;59602;52.142;5.408;2023-04-26T11:35:34;102086.63;;;11.21;48.80
71764;BME280;59602;52.142;5.408;2023-04-26T11:38:03;102091.56;;;11.51;48.39
71764;BME280;59602;52.142;5.408;2023-04-26T11:40:32;102092.41;;;11.71;47.63
71764;BME280;59602;52.142;5.408;2023-04-26T11:43:01;102082.81;;;11.77;46.31
71764;BME280;59602;52.142;5.408;2023-04-26T11:45:31;102090.53;;;11.91;48.64
71764;BME280;59602;52.142;5.408;2023-04-26T11:47:59;102084.56;;;12.24;47.75
71764;BME280;59602;52.142;5.408;2023-04-26T11:50:30;102086.91;;;12.45;46.62
71764;BME280;59602;52.142;5.408;2023-04-26T11:52:59;102075.91;;;12.61;47.60
71764;BME280;59602;52.142;5.408;2023-04-26T11:55:28;102079.84;;;12.64;47.35
71764;BME280;59602;52.142;5.408;2023-04-26T11:57:56;102087.31;;;12.67;47.28
71764;BME280;59602;52.142;5.408;2023-04-26T12:00:25;102082.03;;;12.78;47.10
71764;BME280;59602;52.142;5.408;2023-04-26T12:02:53;102094.19;;;12.38;45.45
71764;BME280;59602;52.142;5.408;2023-04-26T12:05:28;102089.69;;;12.07;46.87
71764;BME280;59602;52.142;5.408;2023-04-26T12:07:59;102088.25;;;11.77;47.21
71764;BME280;59602;52.142;5.408;2023-04-26T12:10:33;102100.19;;;11.53;47.74
71764;BME280;59602;52.142;5.408;2023-04-26T12:13:00;102096.94;;;11.32;46.82
71764;BME280;59602;52.142;5.408;2023-04-26T12:15:31;102102.41;;;11.16;47.32
71764;BME280;59602;52.142;5.408;2023-04-26T12:18:05;102091.97;;;11.02;48.31
71764;BME280;59602;52.142;5.408;2023-04-26T12:20:37;102094.09;;;10.93;49.61
71764;BME280;59602;52.142;5.408;2023-04-26T12:23:04;102097.84;;;10.88;49.45
71764;BME280;59602;52.142;5.408;2023-04-26T12:25:33;102099.19;;;10.78;48.98
71764;BME280;59602;52.142;5.408;2023-04-26T12:28:02;102093.75;;;10.78;50.38
71764;BME280;59602;52.142;5.408;2023-04-26T12:30:29;102107.94;;;10.72;49.51
71764;BME280;59602;52.142;5.408;2023-04-26T12:32:56;102103.56;;;10.67;49.09
71764;BME280;59602;52.142;5.408;2023-04-26T12:35:40;102106.06;;;10.60;50.51
71764;BME280;59602;52.142;5.408;2023-04-26T12:38:07;102098.34;;;10.62;50.06
71764;BME280;59602;52.142;5.408;2023-04-26T12:40:35;102103.00;;;10.62;50.30
71764;BME280;59602;52.142;5.408;2023-04-26T12:43:02;102101.50;;;10.64;50.48
71764;BME280;59602;52.142;5.408;2023-04-26T12:45:28;102096.34;;;10.59;50.19
71764;BME280;59602;52.142;5.408;2023-04-26T12:47:55;102102.81;;;10.54;49.79
71764;BME280;59602;52.142;5.408;2023-04-26T12:50:22;102096.59;;;10.54;49.81
71764;BME280;59602;52.142;5.408;2023-04-26T12:52:49;102096.59;;;10.54;50.37
71764;BME280;59602;52.142;5.408;2023-04-26T12:55:15;102098.28;;;10.58;50.88
71764;BME280;59602;52.142;5.408;2023-04-26T12:57:43;102097.84;;;10.72;50.91
71764;BME280;59602;52.142;5.408;2023-04-26T13:00:13;102093.75;;;10.78;50.60
71764;BME280;59602;52.142;5.408;2023-04-26T13:02:40;102101.69;;;10.87;50.23
71764;BME280;59602;52.142;5.408;2023-04-26T13:05:09;102097.97;;;10.92;50.09
71764;BME280;59602;52.142;5.408;2023-04-26T13:07:37;102102.50;;;10.88;50.11
71764;BME280;59602;52.142;5.408;2023-04-26T13:10:06;102101.19;;;10.82;50.33
71764;BME280;59602;52.142;5.408;2023-04-26T13:12:36;102104.41;;;10.71;50.06
71764;BME280;59602;52.142;5.408;2023-04-26T13:15:06;102107.06;;;10.68;51.80